Time;durP1;ratioP1;P1;durP2;ratioP2;P2;SDS_P1;SDS_P2;PMS_P1;PMS_P2;Temp;Humidity;BMP_temperature;BMP_pressure;BME280_temperature;BME280_humidity;BME280_pressure;Samples;Min_cycle;Max_cycle;Signal;HPM_P1;HPM_P2
2022/01/24 00:01:31;;;;;;;7.43;4.72;;;5.50;49.30;;;;;;5082334;28;34210;-75
2022/01/24 00:03:58;;;;;;;7.75;4.65;;;5.50;49.30;;;;;;5083567;28;34166;-75
2022/01/24 00:06:26;;;;;;;6.95;4.55;;;5.50;49.30;;;;;;5065870;28;34037;-76
2022/01/24 00:08:52;;;;;;;6.55;4.20;;;5.50;49.20;;;;;;5064908;28;35800;-75
2022/01/24 00:11:22;;;;;;;5.80;4.07;;;5.50;49.40;;;;;;5080479;28;34395;-76
2022/01/24 00:16:46;;;;;;;7.25;4.68;;;5.50;49.30;;;;;;5082820;28;34135;-76
2022/01/24 00:27:20;;;;;;;6.75;4.57;;;5.50;49.30;;;;;;5082699;28;34167;-75
2022/01/24 00:29:46;;;;;;;5.32;3.58;;;5.50;49.30;;;;;;5081450;28;35693;-75
2022/01/24 00:32:18;;;;;;;6.10;4.13;;;5.50;49.20;;;;;;5065129;28;34237;-75
2022/01/24 00:34:44;;;;;;;6.18;4.50;;;5.50;49.40;;;;;;5081588;28;34279;-76
2022/01/24 00:37:10;;;;;;;9.15;4.60;;;5.50;49.30;;;;;;5081599;28;34310;-75
2022/01/24 00:39:37;;;;;;;7.72;4.72;;;5.50;49.30;;;;;;5064669;28;35684;-75
2022/01/24 00:42:26;;;;;;;8.55;4.65;;;5.50;49.10;;;;;;5081326;28;34333;-76
2022/01/24 00:45:02;;;;;;;6.68;4.60;;;5.50;49.40;;;;;;5067650;28;34381;-76
2022/01/24 00:47:44;;;;;;;8.43;5.03;;;5.50;49.40;;;;;;5066274;28;34481;-76
2022/01/24 00:53:11;;;;;;;6.28;4.53;;;5.50;49.40;;;;;;5081571;28;35995;-75
2022/01/24 00:55:38;;;;;;;8.15;5.13;;;5.50;49.30;;;;;;5082293;28;34198;-75
2022/01/24 00:58:05;;;;;;;10.65;5.50;;;5.50;49.40;;;;;;5081387;28;34184;-75
2022/01/24 01:00:31;;;;;;;6.65;4.47;;;5.50;49.50;;;;;;5081104;28;35770;-76
2022/01/24 01:02:57;;;;;;;9.38;4.88;;;5.40;49.40;;;;;;5082269;28;34160;-76
2022/01/24 01:18:08;;;;;;;7.93;4.65;;;5.40;49.40;;;;;;5081983;28;34397;-75
2022/01/24 01:18:55;;;;;;;5.70;4.43;;;5.30;49.40;;;;;;5082271;28;34190;-76
2022/01/24 01:21:21;;;;;;;7.20;4.45;;;5.20;49.50;;;;;;5080998;28;36215;-75
2022/01/24 01:23:53;;;;;;;5.95;4.25;;;5.20;49.60;;;;;;5084734;28;34166;-75
2022/01/24 01:29:09;;;;;;;8.38;4.43;;;5.10;49.70;;;;;;5097406;28;34128;-75
2022/01/24 01:56:07;;;;;;;5.40;3.83;;;4.50;50.20;;;;;;5105667;27;34407;-75
2022/01/24 01:58:33;;;;;;;6.72;4.50;;;4.40;50.20;;;;;;5105274;27;34387;-75
2022/01/24 02:01:01;;;;;;;7.38;3.95;;;4.40;50.20;;;;;;5088219;28;34325;-76
2022/01/24 02:03:29;;;;;;;7.03;4.38;;;4.20;50.10;;;;;;5070732;27;35945;-76
2022/01/24 02:05:56;;;;;;;5.35;4.18;;;4.20;50.30;;;;;;5105694;27;33997;-76
2022/01/24 02:08:23;;;;;;;6.28;4.18;;;4.10;50.50;;;;;;5070121;27;34113;-76
2022/01/24 02:10:49;;;;;;;6.88;4.20;;;4.00;50.40;;;;;;5087136;28;34198;-75
2022/01/24 02:13:15;;;;;;;6.95;4.57;;;3.90;50.60;;;;;;5069986;28;36456;-76
2022/01/24 02:18:42;;;;;;;6.63;4.25;;;3.80;50.60;;;;;;5076089;27;34506;-75
2022/01/24 02:23:59;;;;;;;6.35;4.53;;;3.60;50.80;;;;;;5090419;28;34069;-75
2022/01/24 02:26:25;;;;;;;5.75;4.10;;;3.50;51.00;;;;;;5104183;28;34180;-76
2022/01/24 02:29:07;;;;;;;6.32;4.13;;;3.40;50.90;;;;;;5086808;28;34184;-75
2022/01/24 02:31:39;;;;;;;6.38;4.35;;;3.30;51.00;;;;;;5071765;28;34414;-75
2022/01/24 02:34:21;;;;;;;5.70;4.30;;;3.20;51.00;;;;;;5087336;28;34136;-75
2022/01/24 02:36:47;;;;;;;6.35;4.60;;;3.20;51.00;;;;;;5087545;28;34227;-75
2022/01/24 02:49:58;;;;;;;4.88;3.47;;;2.80;51.10;;;;;;5088772;28;34194;-75
2022/01/24 02:52:26;;;;;;;5.75;3.90;;;2.70;51.20;;;;;;5069730;28;34260;-75
2022/01/24 02:54:53;;;;;;;9.70;4.50;;;2.60;51.30;;;;;;5104215;27;34558;-75
2022/01/24 02:57:20;;;;;;;5.53;3.95;;;2.50;51.50;;;;;;5086281;28;34148;-75
2022/01/24 02:59:47;;;;;;;6.68;4.13;;;2.50;51.60;;;;;;5069801;28;34472;-75
2022/01/24 03:02:13;;;;;;;5.97;3.80;;;2.40;51.50;;;;;;5069606;28;34026;-75
2022/01/24 03:04:39;;;;;;;6.55;4.18;;;2.30;51.50;;;;;;5085913;28;35984;-75
2022/01/24 03:07:05;;;;;;;5.60;4.28;;;2.30;51.50;;;;;;5105072;27;34261;-75
2022/01/24 03:09:33;;;;;;;7.55;4.60;;;2.20;51.60;;;;;;5069747;28;34555;-75
2022/01/24 03:14:40;;;;;;;5.63;4.25;;;2.10;51.90;;;;;;5104048;27;34705;-75
2022/01/24 03:17:07;;;;;;;7.70;4.63;;;2.10;51.90;;;;;;5086184;28;34187;-75
2022/01/24 03:19:33;;;;;;;6.80;4.03;;;2.00;52.20;;;;;;5086088;28;34246;-75
2022/01/24 03:21:59;;;;;;;7.65;4.00;;;2.00;52.20;;;;;;5104067;27;34338;-75
2022/01/24 03:24:25;;;;;;;7.75;5.05;;;2.00;52.10;;;;;;5086042;28;34447;-75
2022/01/24 03:26:51;;;;;;;5.25;4.22;;;1.90;52.30;;;;;;5104042;27;34135;-75
2022/01/24 03:29:17;;;;;;;7.68;4.60;;;1.90;52.20;;;;;;5085907;28;34100;-75
2022/01/24 03:31:45;;;;;;;6.63;4.20;;;1.80;52.20;;;;;;5104321;27;34143;-75
2022/01/24 03:34:12;;;;;;;5.70;4.10;;;1.80;52.10;;;;;;5103997;27;34309;-75
2022/01/24 03:36:38;;;;;;;7.85;4.70;;;1.70;52.10;;;;;;5086544;28;34182;-75
2022/01/24 03:39:04;;;;;;;5.80;4.07;;;1.70;52.10;;;;;;5085593;28;34198;-75
2022/01/24 03:41:30;;;;;;;6.15;4.40;;;1.60;52.10;;;;;;5086193;28;34111;-75
2022/01/24 03:44:02;;;;;;;6.63;4.20;;;1.60;52.20;;;;;;5102640;27;36383;-74
2022/01/24 03:46:36;;;;;;;8.00;4.60;;;1.60;52.20;;;;;;5084481;28;34125;-74
2022/01/24 03:49:20;;;;;;;6.43;4.35;;;1.50;53.00;;;;;;5103870;28;34284;-74
2022/01/24 03:51:46;;;;;;;6.57;4.45;;;1.50;52.30;;;;;;5103862;27;34159;-74
2022/01/24 03:54:12;;;;;;;8.40;4.80;;;1.50;52.50;;;;;;5085079;28;35561;-74
2022/01/24 03:56:38;;;;;;;6.72;4.07;;;1.40;52.40;;;;;;5086461;28;34146;-75
2022/01/24 03:59:04;;;;;;;9.52;5.05;;;1.40;52.30;;;;;;5068705;28;34269;-75
2022/01/24 04:01:31;;;;;;;7.05;4.57;;;1.40;52.30;;;;;;5068878;28;34300;-74
2022/01/24 04:03:57;;;;;;;9.90;4.57;;;1.30;52.60;;;;;;5085123;28;35851;-75
2022/01/24 04:06:22;;;;;;;8.82;4.53;;;1.30;52.50;;;;;;5084981;28;34026;-74
2022/01/24 04:08:49;;;;;;;7.32;4.95;;;1.30;52.40;;;;;;5068516;28;34211;-75
2022/01/24 04:11:15;;;;;;;6.82;4.28;;;1.20;52.40;;;;;;5085022;28;34096;-75
2022/01/24 04:13:43;;;;;;;8.48;5.25;;;1.20;52.40;;;;;;5068283;28;35722;-74
2022/01/24 04:19:01;;;;;;;5.78;3.78;;;1.20;52.40;;;;;;5103514;27;34433;-75
2022/01/24 04:21:30;;;;;;;7.25;4.47;;;1.20;52.40;;;;;;5103170;28;34395;-75
2022/01/24 04:24:06;;;;;;;7.28;4.60;;;1.10;52.50;;;;;;5085847;28;35331;-75
2022/01/24 04:26:34;;;;;;;7.82;4.88;;;1.10;52.50;;;;;;5085111;28;34212;-75
2022/01/24 04:29:01;;;;;;;5.72;4.07;;;1.10;52.80;;;;;;5085314;28;34147;-75
2022/01/24 04:31:27;;;;;;;7.15;4.65;;;1.00;52.70;;;;;;5085076;28;34360;-75
2022/01/24 04:33:54;;;;;;;8.32;4.80;;;1.00;52.70;;;;;;5085506;28;34422;-75
2022/01/24 04:36:21;;;;;;;8.00;4.43;;;1.00;52.70;;;;;;5067950;28;34175;-75
2022/01/24 04:38:48;;;;;;;6.35;4.22;;;0.90;52.70;;;;;;5103614;28;34104;-75
2022/01/24 04:41:22;;;;;;;10.48;4.25;;;0.90;52.60;;;;;;5068431;28;34494;-75
2022/01/24 04:43:57;;;;;;;6.85;4.28;;;0.90;52.60;;;;;;5085219;28;36557;-75
2022/01/24 04:46:48;;;;;;;6.03;4.15;;;0.90;52.60;;;;;;5104003;27;34522;-75
2022/01/24 04:52:07;;;;;;;10.90;5.00;;;0.80;52.50;;;;;;5090573;28;34304;-75
2022/01/24 04:54:40;;;;;;;6.63;4.63;;;0.80;52.40;;;;;;5087858;28;35706;-76
2022/01/24 04:57:10;;;;;;;7.28;3.90;;;0.80;52.30;;;;;;5073221;27;34278;-76
2022/01/24 04:59:37;;;;;;;8.93;4.20;;;0.70;52.30;;;;;;5092668;28;34041;-76
2022/01/24 05:02:03;;;;;;;7.38;4.32;;;0.70;52.30;;;;;;5074912;27;34258;-76
2022/01/24 05:04:30;;;;;;;6.47;4.35;;;0.70;52.40;;;;;;5090895;28;35412;-76
2022/01/24 05:06:56;;;;;;;5.70;3.72;;;0.60;52.30;;;;;;5109450;27;34266;-76
2022/01/24 05:09:22;;;;;;;6.55;4.30;;;0.60;52.50;;;;;;5108782;28;34281;-76
2022/01/24 05:11:54;;;;;;;5.93;4.10;;;0.60;52.60;;;;;;5108190;27;34278;-76
2022/01/24 05:25:07;;;;;;;5.65;3.75;;;0.50;52.60;;;;;;5109404;27;34762;-76
2022/01/24 05:27:33;;;;;;;8.77;3.72;;;0.50;52.40;;;;;;5091208;28;33641;-76
2022/01/24 05:29:59;;;;;;;6.38;4.28;;;0.40;52.10;;;;;;5084235;28;34050;-77
2022/01/24 05:32:25;;;;;;;6.50;3.97;;;0.40;52.00;;;;;;5050971;28;34300;-77
2022/01/24 05:34:51;;;;;;;5.82;4.45;;;0.40;52.20;;;;;;5067948;28;34288;-77
2022/01/24 05:37:17;;;;;;;5.50;4.25;;;0.30;52.40;;;;;;5051478;28;34307;-77
2022/01/24 05:39:43;;;;;;;6.53;4.38;;;0.30;52.30;;;;;;5069608;28;34270;-76
2022/01/24 05:42:09;;;;;;;6.00;3.75;;;0.30;52.30;;;;;;5085529;28;34169;-77
2022/01/24 05:44:35;;;;;;;5.43;4.10;;;0.20;52.30;;;;;;5068839;28;35595;-77
2022/01/24 05:47:01;;;;;;;5.90;3.95;;;0.20;52.50;;;;;;5084944;28;34404;-76
2022/01/24 05:49:27;;;;;;;5.75;3.83;;;0.20;52.60;;;;;;5068579;28;34131;-76
2022/01/24 05:51:53;;;;;;;5.55;4.22;;;0.20;52.40;;;;;;5069911;28;34255;-76
2022/01/24 05:54:19;;;;;;;6.35;4.10;;;0.20;52.50;;;;;;5067297;28;35937;-76
2022/01/24 05:56:45;;;;;;;8.05;3.92;;;0.20;52.60;;;;;;5102463;27;34206;-77
2022/01/24 05:59:11;;;;;;;6.15;4.55;;;0.10;52.60;;;;;;5068460;28;34294;-77
2022/01/24 06:01:37;;;;;;;6.65;4.00;;;0.10;52.60;;;;;;5067154;28;34358;-76
2022/01/24 06:04:04;;;;;;;8.48;4.20;;;0.10;52.60;;;;;;5066792;28;36859;-76
2022/01/24 06:06:30;;;;;;;5.95;3.72;;;0.10;52.70;;;;;;5065541;28;34152;-77
2022/01/24 06:08:56;;;;;;;5.28;4.10;;;0.10;53.40;;;;;;5048241;28;34212;-77
2022/01/24 06:11:24;;;;;;;5.20;3.28;;;0.00;53.00;;;;;;5065222;28;34308;-77
2022/01/24 06:13:51;;;;;;;5.47;3.72;;;0.00;53.00;;;;;;5066804;28;35080;-77
2022/01/24 06:16:17;;;;;;;6.15;4.00;;;0.00;52.80;;;;;;5050545;28;34235;-77
2022/01/24 06:18:44;;;;;;;9.85;4.53;;;0.00;52.70;;;;;;5065608;28;34397;-77
2022/01/24 06:21:10;;;;;;;7.20;4.30;;;0.00;52.60;;;;;;5066499;28;34472;-77
2022/01/24 06:23:36;;;;;;;5.57;4.10;;;0.00;52.30;;;;;;5065930;28;35494;-77
2022/01/24 06:26:01;;;;;;;7.13;4.55;;;-0.10;52.50;;;;;;5049704;28;34066;-77
2022/01/24 06:28:27;;;;;;;4.70;3.35;;;-0.10;52.60;;;;;;5072552;28;34032;-77
2022/01/24 06:30:54;;;;;;;6.60;3.92;;;-0.10;52.70;;;;;;5085235;28;34392;-77
2022/01/24 06:33:19;;;;;;;7.00;3.92;;;-0.10;52.90;;;;;;5067988;28;36303;-77
2022/01/24 06:35:46;;;;;;;5.70;4.20;;;-0.20;52.70;;;;;;5086706;28;34174;-77
2022/01/24 06:38:12;;;;;;;8.43;4.80;;;-0.20;52.90;;;;;;5068848;28;34300;-77
2022/01/24 06:40:38;;;;;;;5.95;4.25;;;-0.20;52.80;;;;;;5086090;28;34428;-77
2022/01/24 06:43:04;;;;;;;7.47;4.22;;;-0.20;52.90;;;;;;5067920;28;35472;-77
2022/01/24 06:45:30;;;;;;;9.85;4.78;;;-0.20;52.70;;;;;;5085085;28;34222;-77
2022/01/24 06:47:56;;;;;;;6.07;4.13;;;-0.20;52.70;;;;;;5087546;28;34157;-77
2022/01/24 06:50:22;;;;;;;6.43;4.32;;;-0.20;52.80;;;;;;5068797;28;33871;-77
2022/01/24 06:52:48;;;;;;;7.32;4.30;;;-0.30;52.90;;;;;;5085402;28;36467;-77
2022/01/24 06:55:14;;;;;;;8.13;4.78;;;-0.20;52.90;;;;;;5085973;28;34135;-77
2022/01/24 06:57:41;;;;;;;7.47;4.47;;;-0.30;52.90;;;;;;5084876;28;34297;-77
2022/01/24 07:00:08;;;;;;;12.32;4.72;;;-0.30;53.10;;;;;;5085710;28;34336;-77
2022/01/24 07:02:34;;;;;;;8.10;4.90;;;-0.30;53.00;;;;;;5067193;28;35864;-77
2022/01/24 07:05:00;;;;;;;9.57;5.10;;;-0.30;53.10;;;;;;5083756;28;34403;-77
2022/01/24 07:07:26;;;;;;;9.45;5.70;;;-0.30;53.20;;;;;;5085237;28;34674;-77
2022/01/24 07:09:52;;;;;;;8.35;5.50;;;-0.30;53.30;;;;;;5085555;28;34481;-77
2022/01/24 07:12:18;;;;;;;8.18;4.93;;;-0.30;53.10;;;;;;5066692;28;36925;-77
2022/01/24 07:14:44;;;;;;;9.23;4.65;;;-0.30;53.20;;;;;;5083139;28;34147;-77
2022/01/24 07:17:27;;;;;;;7.75;5.07;;;-0.30;53.30;;;;;;5066591;28;34238;-77
2022/01/24 07:19:53;;;;;;;7.97;5.13;;;-0.30;53.50;;;;;;5083795;28;34396;-77
2022/01/24 07:22:19;;;;;;;8.52;5.55;;;-0.30;53.50;;;;;;5083795;28;35303;-77
2022/01/24 07:24:45;;;;;;;9.23;5.40;;;-0.30;53.40;;;;;;5083626;28;34210;-77
2022/01/24 07:27:11;;;;;;;8.60;5.60;;;-0.30;53.40;;;;;;5084342;28;34265;-77
2022/01/24 07:29:37;;;;;;;8.90;5.43;;;-0.30;53.40;;;;;;5067236;28;34137;-77
2022/01/24 07:32:04;;;;;;;11.27;5.60;;;-0.20;53.50;;;;;;5084242;28;34341;-77
2022/01/24 07:34:30;;;;;;;8.80;5.20;;;-0.30;53.30;;;;;;5083732;28;34178;-77
2022/01/24 07:36:57;;;;;;;6.75;4.68;;;-0.30;53.40;;;;;;5084398;28;34131;-77
2022/01/24 07:39:23;;;;;;;7.57;5.25;;;-0.20;53.30;;;;;;5083923;28;34083;-77
2022/01/24 07:41:50;;;;;;;6.47;3.95;;;-0.20;53.30;;;;;;5083699;28;35876;-77
2022/01/24 07:44:20;;;;;;;7.80;5.03;;;-0.20;53.00;;;;;;5066417;28;34271;-77
2022/01/24 07:46:46;;;;;;;8.35;5.03;;;-0.20;52.80;;;;;;5083827;28;34589;-77
2022/01/24 07:49:12;;;;;;;9.95;4.82;;;-0.20;53.10;;;;;;5082771;28;34305;-77
2022/01/24 07:51:40;;;;;;;9.50;4.82;;;-0.20;53.70;;;;;;5082921;28;34373;-77
2022/01/24 07:54:06;;;;;;;8.07;4.18;;;-0.20;53.00;;;;;;5065869;28;34188;-77
2022/01/24 07:56:33;;;;;;;7.78;5.05;;;-0.20;52.80;;;;;;5082262;28;34092;-77
2022/01/24 07:58:59;;;;;;;10.77;5.13;;;-0.20;52.80;;;;;;5082234;28;34424;-77
2022/01/24 08:01:26;;;;;;;9.93;5.80;;;-0.20;52.90;;;;;;5081578;28;35865;-77
2022/01/24 08:03:52;;;;;;;9.15;5.22;;;-0.20;53.00;;;;;;5082294;28;34170;-77
2022/01/24 08:06:18;;;;;;;10.32;5.03;;;-0.10;53.40;;;;;;5064924;28;34184;-77
2022/01/24 08:08:44;;;;;;;9.23;5.60;;;-0.10;53.50;;;;;;5081807;28;34217;-77
2022/01/24 08:11:11;;;;;;;7.03;4.85;;;0.00;53.40;;;;;;5081465;28;36928;-77
2022/01/24 08:13:37;;;;;;;10.70;5.88;;;0.10;53.50;;;;;;5082096;28;34233;-77
2022/01/24 08:16:04;;;;;;;7.75;5.32;;;0.20;53.70;;;;;;5083401;28;34273;-77
2022/01/24 08:18:29;;;;;;;10.13;5.88;;;0.40;53.70;;;;;;5066033;28;34466;-77
2022/01/24 08:20:55;;;;;;;9.77;6.22;;;0.60;53.60;;;;;;5083862;28;34267;-77
2022/01/24 08:23:21;;;;;;;8.90;5.97;;;0.90;53.30;;;;;;5100198;28;34277;-77
2022/01/24 08:25:47;;;;;;;7.90;5.82;;;1.10;52.80;;;;;;5084463;28;34374;-77
2022/01/24 08:28:13;;;;;;;9.13;5.75;;;1.40;52.20;;;;;;5100964;27;34158;-77
2022/01/24 08:30:40;;;;;;;10.32;6.20;;;1.60;51.70;;;;;;5116867;27;34310;-77
2022/01/24 08:33:06;;;;;;;9.32;6.38;;;1.90;51.40;;;;;;5082375;28;34150;-77
2022/01/24 08:35:32;;;;;;;10.45;6.10;;;2.10;51.10;;;;;;5082509;28;34242;-77
2022/01/24 08:37:58;;;;;;;7.93;5.47;;;2.30;50.80;;;;;;5083710;28;34017;-77
2022/01/24 08:40:27;;;;;;;9.57;6.13;;;2.50;51.00;;;;;;5099027;28;36404;-78
2022/01/24 08:42:59;;;;;;;9.27;6.43;;;2.70;50.20;;;;;;5083971;28;34132;-77
2022/01/24 08:48:08;;;;;;;8.43;5.90;;;2.80;49.90;;;;;;5112562;27;34140;-77
2022/01/24 08:50:35;;;;;;;8.10;6.00;;;2.90;50.20;;;;;;5116506;27;34332;-77
2022/01/24 08:53:03;;;;;;;8.65;6.13;;;2.90;50.50;;;;;;5082338;28;34353;-76
2022/01/24 08:55:31;;;;;;;10.63;5.35;;;2.90;50.60;;;;;;5080934;28;34377;-76
2022/01/24 08:57:58;;;;;;;7.78;5.57;;;3.00;50.90;;;;;;5081451;28;34092;-76
2022/01/24 09:00:25;;;;;;;10.07;5.68;;;3.00;51.10;;;;;;5097534;28;36342;-76
2022/01/24 09:02:52;;;;;;;8.40;5.55;;;3.10;51.40;;;;;;5098249;28;34171;-76
2022/01/24 09:05:21;;;;;;;10.43;6.28;;;3.20;51.30;;;;;;5081762;28;34033;-76
2022/01/24 09:07:47;;;;;;;7.40;5.20;;;3.40;51.60;;;;;;5097691;28;34303;-76
2022/01/24 09:10:13;;;;;;;7.07;5.07;;;3.50;51.50;;;;;;5080947;28;35613;-76
2022/01/24 09:12:39;;;;;;;6.65;4.97;;;3.60;51.20;;;;;;5080737;28;34190;-76
2022/01/24 09:15:06;;;;;;;8.93;5.70;;;3.70;51.40;;;;;;5080912;28;34158;-75
2022/01/24 09:17:32;;;;;;;7.97;5.05;;;3.80;51.30;;;;;;5081236;28;34417;-75
2022/01/24 09:19:59;;;;;;;8.27;5.55;;;3.90;51.60;;;;;;5081089;28;35818;-75
2022/01/24 09:22:26;;;;;;;7.18;5.65;;;4.00;51.40;;;;;;5080734;28;34351;-75
2022/01/24 09:24:52;;;;;;;6.95;5.60;;;4.10;51.40;;;;;;5081366;28;34233;-75
2022/01/24 09:27:18;;;;;;;6.75;4.50;;;4.30;51.60;;;;;;5114903;27;34323;-75
2022/01/24 09:29:44;;;;;;;5.47;4.28;;;4.40;51.60;;;;;;5080664;28;35810;-75
2022/01/24 09:32:10;;;;;;;7.05;4.65;;;4.60;51.70;;;;;;5081711;28;34075;-75
2022/01/24 09:34:36;;;;;;;6.03;4.50;;;4.70;51.50;;;;;;5098344;28;34185;-75
2022/01/24 09:37:03;;;;;;;5.60;4.13;;;4.90;51.50;;;;;;5081254;28;34112;-75
2022/01/24 09:39:29;;;;;;;6.28;4.40;;;5.00;51.30;;;;;;5082905;28;34530;-75
2022/01/24 09:41:55;;;;;;;5.90;4.50;;;5.20;51.50;;;;;;5082037;28;34163;-75
2022/01/24 09:44:21;;;;;;;5.28;4.13;;;5.40;51.50;;;;;;5085185;28;34087;-75
2022/01/24 09:46:47;;;;;;;5.05;3.60;;;5.60;51.50;;;;;;5102918;28;34072;-75
2022/01/24 09:49:14;;;;;;;4.82;3.67;;;5.80;51.10;;;;;;5102300;28;36485;-75
2022/01/24 09:51:43;;;;;;;5.35;4.03;;;6.00;51.00;;;;;;5068664;28;34365;-75
2022/01/24 09:54:09;;;;;;;5.25;3.85;;;6.10;51.00;;;;;;5102519;28;34240;-75
2022/01/24 09:56:36;;;;;;;5.03;3.97;;;6.40;51.00;;;;;;5086475;28;34131;-75
2022/01/24 09:59:03;;;;;;;5.00;3.97;;;6.50;50.60;;;;;;5086417;28;34329;-75
2022/01/24 10:01:32;;;;;;;4.30;3.83;;;6.70;50.60;;;;;;5102098;28;34271;-75
2022/01/24 10:04:12;;;;;;;4.00;3.03;;;6.90;50.30;;;;;;5102421;28;34181;-75
2022/01/24 10:07:11;;;;;;;4.10;3.65;;;7.00;49.10;;;;;;5085912;28;34120;-75
2022/01/24 10:09:43;;;;;;;5.05;3.85;;;7.20;48.90;;;;;;5101974;28;35648;-75
2022/01/24 10:12:19;;;;;;;4.43;3.72;;;7.40;50.00;;;;;;5085362;28;34245;-75
2022/01/24 10:17:30;;;;;;;4.15;3.20;;;7.60;49.30;;;;;;5086066;28;34290;-75
2022/01/24 10:19:56;;;;;;;4.10;3.05;;;7.80;49.40;;;;;;5101701;28;35981;-75
2022/01/24 10:22:25;;;;;;;4.75;3.83;;;7.90;49.50;;;;;;5085403;28;34454;-75
2022/01/24 10:24:54;;;;;;;3.85;3.20;;;8.10;49.20;;;;;;5086398;28;34059;-75
2022/01/24 10:27:24;;;;;;;3.78;3.13;;;8.20;50.00;;;;;;5084680;28;34177;-75
2022/01/24 10:29:58;;;;;;;5.50;3.42;;;8.40;48.90;;;;;;5099391;28;36666;-75
2022/01/24 10:32:41;;;;;;;3.65;3.05;;;8.50;48.40;;;;;;5085934;28;34088;-75
2022/01/24 10:35:27;;;;;;;4.18;3.55;;;8.60;46.10;;;;;;5084927;28;34311;-75
2022/01/24 10:38:25;;;;;;;3.45;3.13;;;8.60;46.10;;;;;;5085829;28;34246;-75
2022/01/24 10:40:56;;;;;;;4.40;3.40;;;8.70;45.60;;;;;;5085276;28;34363;-75
2022/01/24 10:43:26;;;;;;;4.22;3.40;;;8.80;48.30;;;;;;5100962;28;34429;-75
2022/01/24 10:45:54;;;;;;;6.35;3.80;;;8.80;47.80;;;;;;5100750;28;34253;-75
2022/01/24 10:48:24;;;;;;;5.75;3.28;;;8.90;48.40;;;;;;5100108;27;34285;-75
2022/01/24 10:51:04;;;;;;;4.30;3.17;;;9.00;48.10;;;;;;5082649;28;35513;-75
2022/01/24 10:53:36;;;;;;;4.45;3.15;;;9.20;46.30;;;;;;5082776;28;34302;-75
2022/01/24 10:56:23;;;;;;;3.40;3.10;;;9.20;47.50;;;;;;5083772;28;34124;-75
2022/01/24 10:58:49;;;;;;;3.85;3.20;;;9.20;47.70;;;;;;5113648;27;34296;-76
2022/01/24 11:01:15;;;;;;;4.95;3.00;;;9.30;47.70;;;;;;5084515;28;34274;-76
2022/01/24 11:03:41;;;;;;;4.68;3.03;;;9.40;47.70;;;;;;5099584;27;34283;-76
2022/01/24 11:06:07;;;;;;;4.40;3.75;;;9.60;47.60;;;;;;5084119;28;34314;-76
2022/01/24 11:08:33;;;;;;;4.93;3.00;;;9.60;47.20;;;;;;5100055;27;34628;-76
2022/01/24 11:10:59;;;;;;;4.78;3.40;;;9.50;46.80;;;;;;5099627;27;36377;-76
2022/01/24 11:13:30;;;;;;;3.25;2.90;;;9.50;47.00;;;;;;5099717;27;34289;-76
2022/01/24 11:16:00;;;;;;;3.53;3.22;;;9.50;47.20;;;;;;5084132;28;34328;-76
2022/01/24 11:18:26;;;;;;;3.00;2.70;;;9.50;46.90;;;;;;5082686;28;34196;-76
2022/01/24 11:21:01;;;;;;;3.38;2.97;;;9.40;46.80;;;;;;5082590;28;36319;-76
2022/01/24 11:23:29;;;;;;;6.15;3.38;;;9.60;46.70;;;;;;5083255;28;34127;-76
2022/01/24 11:25:57;;;;;;;4.07;3.50;;;9.60;46.40;;;;;;5082417;28;34329;-76
2022/01/24 11:28:25;;;;;;;3.90;3.28;;;9.60;46.60;;;;;;5082399;28;34131;-76
2022/01/24 11:31:06;;;;;;;5.20;2.67;;;9.60;46.50;;;;;;5065870;28;35831;-76
2022/01/24 11:33:36;;;;;;;3.63;3.03;;;9.70;44.50;;;;;;5066258;28;34471;-76
2022/01/24 11:36:05;;;;;;;4.55;3.10;;;9.70;46.50;;;;;;5082846;28;34254;-76
2022/01/24 11:38:36;;;;;;;5.60;2.67;;;9.80;46.20;;;;;;5083091;28;34175;-76
2022/01/24 11:41:13;;;;;;;4.68;2.88;;;9.90;45.80;;;;;;5083863;28;34176;-76
2022/01/24 11:43:43;;;;;;;3.72;2.88;;;9.90;45.70;;;;;;5082557;28;34181;-76
2022/01/24 11:46:43;;;;;;;4.55;3.30;;;9.90;46.10;;;;;;5082748;28;34197;-76
2022/01/24 11:49:15;;;;;;;4.63;3.35;;;9.90;41.10;;;;;;5070387;28;34167;-76
2022/01/24 11:51:44;;;;;;;3.88;3.20;;;10.00;45.00;;;;;;5066603;28;35823;-76
2022/01/24 11:57:40;;;;;;;2.90;2.63;;;10.00;41.60;;;;;;5084069;28;34103;-76
2022/01/24 12:00:19;;;;;;;6.32;3.08;;;10.00;44.70;;;;;;5082586;28;34171;-76
2022/01/24 12:02:52;;;;;;;3.20;2.90;;;10.10;43.40;;;;;;5082162;28;34385;-77
2022/01/24 12:05:21;;;;;;;3.72;2.38;;;10.10;44.40;;;;;;5083860;28;34088;-77
2022/01/24 12:07:58;;;;;;;3.50;2.83;;;10.10;45.20;;;;;;5064878;28;34562;-76
2022/01/24 12:10:45;;;;;;;6.53;2.80;;;10.10;43.50;;;;;;5066588;28;34190;-76
2022/01/24 12:13:20;;;;;;;4.38;3.08;;;10.10;40.60;;;;;;5068890;28;36516;-76
2022/01/24 12:15:54;;;;;;;3.85;3.03;;;10.10;44.90;;;;;;5081922;28;34130;-76
2022/01/24 12:18:43;;;;;;;5.03;2.78;;;10.00;44.50;;;;;;5082651;28;34221;-76
2022/01/24 12:21:14;;;;;;;3.20;2.50;;;10.00;45.30;;;;;;5068324;28;34214;-76
2022/01/24 12:23:47;;;;;;;3.80;2.50;;;10.00;45.20;;;;;;5082098;28;36571;-76
2022/01/24 12:26:25;;;;;;;3.20;2.58;;;10.00;44.10;;;;;;5064899;28;34295;-76
2022/01/24 12:28:58;;;;;;;3.15;2.70;;;10.00;43.20;;;;;;5064801;28;34483;-76
2022/01/24 12:31:42;;;;;;;4.30;2.70;;;10.00;45.00;;;;;;5064975;28;34194;-76
2022/01/24 12:34:17;;;;;;;5.50;2.65;;;9.90;41.20;;;;;;5082361;28;35192;-76
2022/01/24 12:36:50;;;;;;;3.10;2.60;;;10.00;43.50;;;;;;5082742;28;34428;-76
2022/01/24 12:39:27;;;;;;;5.13;2.90;;;10.00;45.00;;;;;;5082451;28;34213;-76
2022/01/24 12:41:59;;;;;;;4.78;2.53;;;10.00;43.20;;;;;;5083163;28;34447;-76
2022/01/24 12:47:22;;;;;;;8.98;2.88;;;10.20;45.00;;;;;;5069006;28;34235;-76
2022/01/24 12:49:51;;;;;;;4.32;2.80;;;10.20;43.90;;;;;;5082940;28;34352;-76
2022/01/24 12:52:27;;;;;;;4.60;2.60;;;10.20;44.90;;;;;;5083628;28;34433;-77
2022/01/24 12:54:58;;;;;;;2.78;2.50;;;10.30;44.40;;;;;;5083062;28;34624;-76
2022/01/24 12:57:32;;;;;;;7.63;2.50;;;10.30;43.10;;;;;;5082614;28;34523;-76
2022/01/24 13:00:01;;;;;;;3.50;2.78;;;10.40;44.50;;;;;;5084071;28;34056;-76
2022/01/24 13:02:31;;;;;;;3.40;2.60;;;10.40;44.40;;;;;;5099830;28;34106;-76
2022/01/24 13:05:14;;;;;;;2.55;2.13;;;10.40;43.80;;;;;;5082769;28;36548;-76
2022/01/24 13:07:48;;;;;;;3.65;2.47;;;10.40;40.30;;;;;;5083818;28;34256;-76
2022/01/24 13:10:18;;;;;;;4.07;2.10;;;10.40;44.20;;;;;;5083459;28;34367;-76
2022/01/24 13:12:53;;;;;;;4.30;2.28;;;10.50;44.30;;;;;;5083914;28;33961;-76
2022/01/24 13:20:21;;;;;;;5.50;2.28;;;10.50;44.30;;;;;;5099010;28;35522;-76
2022/01/24 13:21:08;;;;;;;3.78;2.45;;;10.40;44.20;;;;;;5086205;28;34371;-76
2022/01/24 13:23:35;;;;;;;4.07;2.45;;;10.40;44.30;;;;;;5071724;28;33997;-76
2022/01/24 13:26:04;;;;;;;2.95;2.50;;;10.40;44.00;;;;;;5102378;28;35674;-76
2022/01/24 13:28:30;;;;;;;4.60;2.17;;;10.40;44.20;;;;;;5105855;27;35250;-76
2022/01/24 13:31:02;;;;;;;6.32;2.40;;;10.50;44.40;;;;;;5085696;28;34187;-76
2022/01/24 13:33:31;;;;;;;4.57;2.40;;;10.40;44.10;;;;;;5086208;28;34035;-76
2022/01/24 13:36:01;;;;;;;3.05;2.40;;;10.40;44.10;;;;;;5102416;28;36049;-76
2022/01/24 13:38:31;;;;;;;4.15;2.22;;;10.40;43.80;;;;;;5102570;28;34366;-76
2022/01/24 13:41:04;;;;;;;3.00;2.30;;;10.30;44.30;;;;;;5087050;28;34115;-76
2022/01/24 13:43:51;;;;;;;3.58;2.60;;;10.30;43.80;;;;;;5101556;28;34177;-77
2022/01/24 13:46:22;;;;;;;4.97;2.35;;;10.20;39.40;;;;;;5084196;28;35889;-76
2022/01/24 13:48:52;;;;;;;4.03;2.50;;;10.10;43.70;;;;;;5100782;27;34491;-76
2022/01/24 13:51:21;;;;;;;6.25;2.78;;;10.10;43.90;;;;;;5085131;28;34240;-76
2022/01/24 13:53:55;;;;;;;4.72;2.00;;;10.00;43.70;;;;;;5102828;28;34063;-76
2022/01/24 13:56:52;;;;;;;2.72;2.17;;;10.00;42.80;;;;;;5085427;28;34315;-76
2022/01/24 13:59:21;;;;;;;4.30;2.38;;;9.90;41.60;;;;;;5084658;28;34189;-76
2022/01/24 14:02:09;;;;;;;4.32;2.58;;;9.90;44.10;;;;;;5118299;27;34137;-76
2022/01/24 14:04:48;;;;;;;3.22;2.40;;;9.80;43.20;;;;;;5113429;27;34348;-76
2022/01/24 14:07:34;;;;;;;3.05;2.40;;;9.80;43.10;;;;;;5101362;27;35548;-76
2022/01/24 14:10:04;;;;;;;3.03;2.70;;;9.70;41.20;;;;;;5086501;28;34253;-76
2022/01/24 14:12:54;;;;;;;4.60;2.45;;;9.60;44.10;;;;;;5101829;28;34017;-76
2022/01/24 14:15:28;;;;;;;4.57;2.90;;;9.60;44.10;;;;;;5117910;27;34312;-76
2022/01/24 14:20:51;;;;;;;3.53;2.85;;;9.50;43.40;;;;;;5113120;27;34316;-76
2022/01/24 14:23:39;;;;;;;3.22;2.15;;;9.40;44.40;;;;;;5100116;27;34310;-76
2022/01/24 14:26:15;;;;;;;3.55;2.38;;;9.30;44.40;;;;;;5082485;28;34397;-76
2022/01/24 14:28:42;;;;;;;2.30;1.88;;;9.20;43.50;;;;;;5094519;28;34431;-77
2022/01/24 14:31:13;;;;;;;4.00;2.58;;;9.20;44.80;;;;;;5122256;27;34333;-76
2022/01/24 14:33:42;;;;;;;4.45;2.15;;;9.10;44.90;;;;;;5088104;28;34138;-76
2022/01/24 14:36:15;;;;;;;3.72;2.13;;;9.00;44.70;;;;;;5106697;27;34131;-76
2022/01/24 14:38:44;;;;;;;5.00;2.30;;;9.00;44.20;;;;;;5087793;28;36498;-76
2022/01/24 14:41:16;;;;;;;3.95;2.20;;;8.90;45.00;;;;;;5088195;28;34124;-76
2022/01/24 14:46:29;;;;;;;3.45;2.25;;;8.80;44.90;;;;;;5119968;27;34243;-76
2022/01/24 14:48:58;;;;;;;3.05;2.15;;;8.80;45.00;;;;;;5121965;27;35918;-76
2022/01/24 14:51:29;;;;;;;2.85;2.13;;;8.70;45.20;;;;;;5087931;28;34021;-76
2022/01/24 14:53:57;;;;;;;4.28;2.13;;;8.70;45.20;;;;;;5087908;28;34103;-76